sensor_id;sensor_type;location;lat;lon;timestamp;P1;durP1;ratioP1;P2;durP2;ratioP2
10701;SDS011;5402;50.004;8.246;2023-04-25T00:02:00;5.93;;;4.40;;
10701;SDS011;5402;50.004;8.246;2023-04-25T00:04:28;5.00;;;4.30;;
10701;SDS011;5402;50.004;8.246;2023-04-25T00:06:58;7.30;;;4.50;;
10701;SDS011;5402;50.004;8.246;2023-04-25T00:09:28;5.50;;;4.23;;
10701;SDS011;5402;50.004;8.246;2023-04-25T00:11:54;4.97;;;4.17;;
10701;SDS011;5402;50.004;8.246;2023-04-25T00:14:22;6.13;;;4.63;;
10701;SDS011;5402;50.004;8.246;2023-04-25T00:16:49;7.60;;;5.10;;
10701;SDS011;5402;50.004;8.246;2023-04-25T00:19:16;5.53;;;4.40;;
10701;SDS011;5402;50.004;8.246;2023-04-25T00:21:43;7.17;;;5.17;;
10701;SDS011;5402;50.004;8.246;2023-04-25T00:24:11;5.83;;;4.43;;
10701;SDS011;5402;50.004;8.246;2023-04-25T00:26:39;6.70;;;4.63;;
10701;SDS011;5402;50.004;8.246;2023-04-25T00:29:06;6.20;;;4.23;;
10701;SDS011;5402;50.004;8.246;2023-04-25T00:31:33;6.43;;;4.43;;
10701;SDS011;5402;50.004;8.246;2023-04-25T00:33:59;6.90;;;4.60;;
10701;SDS011;5402;50.004;8.246;2023-04-25T00:36:26;5.70;;;4.53;;
10701;SDS011;5402;50.004;8.246;2023-04-25T00:38:53;5.83;;;4.53;;
10701;SDS011;5402;50.004;8.246;2023-04-25T00:41:20;6.30;;;4.77;;
10701;SDS011;5402;50.004;8.246;2023-04-25T00:43:52;6.57;;;4.50;;
10701;SDS011;5402;50.004;8.246;2023-04-25T00:46:20;5.43;;;4.50;;
10701;SDS011;5402;50.004;8.246;2023-04-25T00:48:47;6.93;;;4.40;;
10701;SDS011;5402;50.004;8.246;2023-04-25T00:51:15;6.40;;;4.57;;
10701;SDS011;5402;50.004;8.246;2023-04-25T00:53:45;5.50;;;4.13;;
10701;SDS011;5402;50.004;8.246;2023-04-25T00:56:13;6.00;;;4.80;;
10701;SDS011;5402;50.004;8.246;2023-04-25T00:58:40;6.43;;;4.83;;
10701;SDS011;5402;50.004;8.246;2023-04-25T01:01:09;6.47;;;4.43;;
10701;SDS011;5402;50.004;8.246;2023-04-25T01:03:37;6.83;;;4.77;;
10701;SDS011;5402;50.004;8.246;2023-04-25T01:06:06;6.30;;;4.30;;
10701;SDS011;5402;50.004;8.246;2023-04-25T01:08:34;6.20;;;4.47;;
10701;SDS011;5402;50.004;8.246;2023-04-25T01:11:01;6.67;;;5.17;;
10701;SDS011;5402;50.004;8.246;2023-04-25T01:13:27;6.30;;;4.73;;
10701;SDS011;5402;50.004;8.246;2023-04-25T01:15:54;7.03;;;4.70;;
10701;SDS011;5402;50.004;8.246;2023-04-25T01:18:22;6.07;;;5.03;;
10701;SDS011;5402;50.004;8.246;2023-04-25T01:20:50;6.33;;;4.80;;
10701;SDS011;5402;50.004;8.246;2023-04-25T01:23:19;7.23;;;5.17;;
10701;SDS011;5402;50.004;8.246;2023-04-25T01:25:47;6.60;;;4.93;;
10701;SDS011;5402;50.004;8.246;2023-04-25T01:28:14;9.07;;;5.30;;
10701;SDS011;5402;50.004;8.246;2023-04-25T01:30:42;5.67;;;4.63;;
10701;SDS011;5402;50.004;8.246;2023-04-25T01:33:10;6.20;;;4.47;;
10701;SDS011;5402;50.004;8.246;2023-04-25T01:35:39;6.80;;;4.93;;
10701;SDS011;5402;50.004;8.246;2023-04-25T01:38:06;7.30;;;5.03;;
10701;SDS011;5402;50.004;8.246;2023-04-25T01:40:35;6.87;;;4.80;;
10701;SDS011;5402;50.004;8.246;2023-04-25T01:43:05;5.30;;;4.37;;
10701;SDS011;5402;50.004;8.246;2023-04-25T01:45:33;7.47;;;4.97;;
10701;SDS011;5402;50.004;8.246;2023-04-25T01:48:01;6.13;;;4.57;;
10701;SDS011;5402;50.004;8.246;2023-04-25T01:50:28;6.37;;;4.87;;
10701;SDS011;5402;50.004;8.246;2023-04-25T01:52:55;5.87;;;4.67;;
10701;SDS011;5402;50.004;8.246;2023-04-25T01:55:22;6.83;;;5.03;;
10701;SDS011;5402;50.004;8.246;2023-04-25T01:57:50;6.80;;;4.70;;
10701;SDS011;5402;50.004;8.246;2023-04-25T02:00:17;5.57;;;4.37;;
10701;SDS011;5402;50.004;8.246;2023-04-25T02:02:44;5.50;;;4.60;;
10701;SDS011;5402;50.004;8.246;2023-04-25T02:05:11;7.43;;;4.67;;
10701;SDS011;5402;50.004;8.246;2023-04-25T02:07:37;6.43;;;4.53;;
10701;SDS011;5402;50.004;8.246;2023-04-25T02:10:04;6.10;;;4.90;;
10701;SDS011;5402;50.004;8.246;2023-04-25T02:12:32;6.90;;;5.23;;
10701;SDS011;5402;50.004;8.246;2023-04-25T02:15:00;6.90;;;5.17;;
10701;SDS011;5402;50.004;8.246;2023-04-25T02:17:26;7.13;;;4.90;;
10701;SDS011;5402;50.004;8.246;2023-04-25T02:19:53;6.37;;;5.10;;
10701;SDS011;5402;50.004;8.246;2023-04-25T02:22:20;6.57;;;5.37;;
10701;SDS011;5402;50.004;8.246;2023-04-25T02:24:46;7.37;;;5.50;;
10701;SDS011;5402;50.004;8.246;2023-04-25T02:27:13;6.37;;;4.77;;
10701;SDS011;5402;50.004;8.246;2023-04-25T02:29:40;7.67;;;5.20;;
10701;SDS011;5402;50.004;8.246;2023-04-25T02:32:08;7.20;;;4.90;;
10701;SDS011;5402;50.004;8.246;2023-04-25T02:34:35;5.97;;;4.83;;
10701;SDS011;5402;50.004;8.246;2023-04-25T02:37:02;7.57;;;5.30;;
10701;SDS011;5402;50.004;8.246;2023-04-25T02:39:29;9.03;;;5.80;;
10701;SDS011;5402;50.004;8.246;2023-04-25T02:41:55;7.57;;;5.93;;
10701;SDS011;5402;50.004;8.246;2023-04-25T02:44:22;7.70;;;5.80;;
10701;SDS011;5402;50.004;8.246;2023-04-25T02:46:49;7.40;;;5.70;;
10701;SDS011;5402;50.004;8.246;2023-04-25T02:49:17;9.73;;;5.97;;
10701;SDS011;5402;50.004;8.246;2023-04-25T02:51:43;9.87;;;6.23;;
10701;SDS011;5402;50.004;8.246;2023-04-25T02:54:10;11.67;;;6.87;;
10701;SDS011;5402;50.004;8.246;2023-04-25T02:56:37;12.37;;;6.50;;
10701;SDS011;5402;50.004;8.246;2023-04-25T02:59:03;7.93;;;6.33;;
10701;SDS011;5402;50.004;8.246;2023-04-25T03:01:30;10.47;;;6.97;;
10701;SDS011;5402;50.004;8.246;2023-04-25T03:03:57;8.73;;;6.67;;
10701;SDS011;5402;50.004;8.246;2023-04-25T03:06:26;10.33;;;6.40;;
10701;SDS011;5402;50.004;8.246;2023-04-25T03:08:53;10.53;;;6.53;;
10701;SDS011;5402;50.004;8.246;2023-04-25T03:11:19;10.73;;;6.47;;
10701;SDS011;5402;50.004;8.246;2023-04-25T03:13:46;10.47;;;6.60;;
10701;SDS011;5402;50.004;8.246;2023-04-25T03:16:13;11.63;;;7.27;;
10701;SDS011;5402;50.004;8.246;2023-04-25T03:18:40;9.80;;;7.03;;
10701;SDS011;5402;50.004;8.246;2023-04-25T03:21:07;11.37;;;6.37;;
10701;SDS011;5402;50.004;8.246;2023-04-25T03:23:35;9.50;;;7.03;;
10701;SDS011;5402;50.004;8.246;2023-04-25T03:26:02;10.53;;;7.00;;
10701;SDS011;5402;50.004;8.246;2023-04-25T03:28:29;11.20;;;7.73;;
10701;SDS011;5402;50.004;8.246;2023-04-25T03:30:58;13.40;;;7.40;;
10701;SDS011;5402;50.004;8.246;2023-04-25T03:33:25;10.97;;;7.70;;
10701;SDS011;5402;50.004;8.246;2023-04-25T03:35:51;12.13;;;7.73;;
10701;SDS011;5402;50.004;8.246;2023-04-25T03:38:18;14.37;;;8.60;;
10701;SDS011;5402;50.004;8.246;2023-04-25T03:40:46;11.67;;;8.57;;
10701;SDS011;5402;50.004;8.246;2023-04-25T03:43:13;12.63;;;8.00;;
10701;SDS011;5402;50.004;8.246;2023-04-25T03:45:40;14.77;;;8.27;;
10701;SDS011;5402;50.004;8.246;2023-04-25T03:48:07;14.20;;;8.00;;
10701;SDS011;5402;50.004;8.246;2023-04-25T03:50:33;12.07;;;8.13;;
10701;SDS011;5402;50.004;8.246;2023-04-25T03:53:00;16.13;;;8.60;;
10701;SDS011;5402;50.004;8.246;2023-04-25T03:55:27;14.00;;;8.30;;
10701;SDS011;5402;50.004;8.246;2023-04-25T03:57:56;15.77;;;8.80;;
10701;SDS011;5402;50.004;8.246;2023-04-25T04:00:23;16.20;;;9.47;;
10701;SDS011;5402;50.004;8.246;2023-04-25T04:02:50;16.90;;;8.43;;
10701;SDS011;5402;50.004;8.246;2023-04-25T04:05:17;15.60;;;9.47;;
10701;SDS011;5402;50.004;8.246;2023-04-25T04:07:44;13.00;;;9.00;;
10701;SDS011;5402;50.004;8.246;2023-04-25T04:10:11;13.77;;;9.30;;
10701;SDS011;5402;50.004;8.246;2023-04-25T04:12:37;12.43;;;8.63;;
10701;SDS011;5402;50.004;8.246;2023-04-25T04:15:06;13.33;;;8.33;;
10701;SDS011;5402;50.004;8.246;2023-04-25T04:17:34;14.90;;;8.77;;
10701;SDS011;5402;50.004;8.246;2023-04-25T04:20:00;12.60;;;8.40;;
10701;SDS011;5402;50.004;8.246;2023-04-25T04:22:28;16.57;;;8.80;;
10701;SDS011;5402;50.004;8.246;2023-04-25T04:24:55;14.10;;;7.77;;
10701;SDS011;5402;50.004;8.246;2023-04-25T04:27:22;12.23;;;7.77;;
10701;SDS011;5402;50.004;8.246;2023-04-25T04:29:49;11.07;;;7.03;;
10701;SDS011;5402;50.004;8.246;2023-04-25T04:32:18;16.10;;;7.70;;
10701;SDS011;5402;50.004;8.246;2023-04-25T04:34:45;13.97;;;7.00;;
10701;SDS011;5402;50.004;8.246;2023-04-25T04:37:13;11.03;;;6.63;;
10701;SDS011;5402;50.004;8.246;2023-04-25T04:39:40;14.87;;;6.70;;
10701;SDS011;5402;50.004;8.246;2023-04-25T04:42:07;16.13;;;6.77;;
10701;SDS011;5402;50.004;8.246;2023-04-25T04:44:33;9.27;;;6.50;;
10701;SDS011;5402;50.004;8.246;2023-04-25T04:47:02;13.23;;;6.10;;
10701;SDS011;5402;50.004;8.246;2023-04-25T04:49:32;11.07;;;6.23;;
10701;SDS011;5402;50.004;8.246;2023-04-25T04:51:59;10.63;;;6.17;;
10701;SDS011;5402;50.004;8.246;2023-04-25T04:54:26;11.97;;;5.63;;
10701;SDS011;5402;50.004;8.246;2023-04-25T04:56:53;17.47;;;7.00;;
10701;SDS011;5402;50.004;8.246;2023-04-25T04:59:19;14.63;;;6.40;;
10701;SDS011;5402;50.004;8.246;2023-04-25T05:01:46;13.53;;;7.17;;
10701;SDS011;5402;50.004;8.246;2023-04-25T05:04:13;9.57;;;5.73;;
10701;SDS011;5402;50.004;8.246;2023-04-25T05:06:42;12.47;;;6.70;;
10701;SDS011;5402;50.004;8.246;2023-04-25T05:09:09;15.40;;;6.27;;
10701;SDS011;5402;50.004;8.246;2023-04-25T05:11:36;12.33;;;7.23;;
10701;SDS011;5402;50.004;8.246;2023-04-25T05:14:03;11.90;;;6.70;;
10701;SDS011;5402;50.004;8.246;2023-04-25T05:16:29;14.37;;;5.50;;
10701;SDS011;5402;50.004;8.246;2023-04-25T05:18:56;11.37;;;6.20;;
10701;SDS011;5402;50.004;8.246;2023-04-25T05:21:23;9.77;;;5.73;;
10701;SDS011;5402;50.004;8.246;2023-04-25T05:23:51;12.13;;;5.53;;
10701;SDS011;5402;50.004;8.246;2023-04-25T05:26:18;12.33;;;6.23;;
10701;SDS011;5402;50.004;8.246;2023-04-25T05:28:45;17.53;;;6.27;;
10701;SDS011;5402;50.004;8.246;2023-04-25T05:31:12;12.83;;;5.77;;
10701;SDS011;5402;50.004;8.246;2023-04-25T05:33:39;13.73;;;6.43;;
10701;SDS011;5402;50.004;8.246;2023-04-25T05:36:07;11.83;;;6.17;;
10701;SDS011;5402;50.004;8.246;2023-04-25T05:38:34;14.00;;;5.80;;
10701;SDS011;5402;50.004;8.246;2023-04-25T05:41:02;16.07;;;6.20;;
10701;SDS011;5402;50.004;8.246;2023-04-25T05:43:28;12.30;;;5.57;;
10701;SDS011;5402;50.004;8.246;2023-04-25T05:45:55;15.70;;;6.20;;
10701;SDS011;5402;50.004;8.246;2023-04-25T05:48:22;11.63;;;5.67;;
10701;SDS011;5402;50.004;8.246;2023-04-25T05:50:48;11.33;;;5.30;;
10701;SDS011;5402;50.004;8.246;2023-04-25T05:53:16;9.67;;;5.63;;
10701;SDS011;5402;50.004;8.246;2023-04-25T05:55:43;13.00;;;6.33;;
10701;SDS011;5402;50.004;8.246;2023-04-25T05:58:11;13.57;;;6.53;;
10701;SDS011;5402;50.004;8.246;2023-04-25T06:00:37;8.23;;;5.57;;
10701;SDS011;5402;50.004;8.246;2023-04-25T06:03:06;12.77;;;5.67;;
10701;SDS011;5402;50.004;8.246;2023-04-25T06:05:34;11.70;;;5.57;;
10701;SDS011;5402;50.004;8.246;2023-04-25T06:08:01;8.87;;;5.33;;
10701;SDS011;5402;50.004;8.246;2023-04-25T06:10:28;11.87;;;5.50;;
10701;SDS011;5402;50.004;8.246;2023-04-25T06:12:55;12.50;;;5.53;;
10701;SDS011;5402;50.004;8.246;2023-04-25T06:15:23;10.97;;;5.53;;
10701;SDS011;5402;50.004;8.246;2023-04-25T06:17:49;9.30;;;5.57;;
10701;SDS011;5402;50.004;8.246;2023-04-25T06:20:16;8.50;;;5.60;;
10701;SDS011;5402;50.004;8.246;2023-04-25T06:22:44;14.67;;;5.40;;
10701;SDS011;5402;50.004;8.246;2023-04-25T06:25:11;8.80;;;4.77;;
10701;SDS011;5402;50.004;8.246;2023-04-25T06:27:38;12.93;;;5.20;;
10701;SDS011;5402;50.004;8.246;2023-04-25T06:30:05;13.13;;;5.27;;
10701;SDS011;5402;50.004;8.246;2023-04-25T06:32:34;8.90;;;4.70;;
10701;SDS011;5402;50.004;8.246;2023-04-25T06:35:01;8.20;;;4.83;;
10701;SDS011;5402;50.004;8.246;2023-04-25T06:37:28;7.73;;;4.43;;
10701;SDS011;5402;50.004;8.246;2023-04-25T06:39:55;6.33;;;4.23;;
10701;SDS011;5402;50.004;8.246;2023-04-25T06:42:22;9.13;;;4.90;;
10701;SDS011;5402;50.004;8.246;2023-04-25T06:44:48;11.40;;;4.50;;
10701;SDS011;5402;50.004;8.246;2023-04-25T06:47:16;8.10;;;4.17;;
10701;SDS011;5402;50.004;8.246;2023-04-25T06:49:44;10.47;;;4.90;;
10701;SDS011;5402;50.004;8.246;2023-04-25T06:52:11;9.27;;;4.10;;
10701;SDS011;5402;50.004;8.246;2023-04-25T06:54:37;6.60;;;3.80;;
10701;SDS011;5402;50.004;8.246;2023-04-25T06:57:04;7.00;;;4.13;;
10701;SDS011;5402;50.004;8.246;2023-04-25T06:59:31;8.63;;;4.07;;
10701;SDS011;5402;50.004;8.246;2023-04-25T07:01:58;7.47;;;4.20;;
10701;SDS011;5402;50.004;8.246;2023-04-25T07:04:25;8.87;;;3.90;;
10701;SDS011;5402;50.004;8.246;2023-04-25T07:06:53;8.00;;;4.47;;
10701;SDS011;5402;50.004;8.246;2023-04-25T07:09:20;7.17;;;3.93;;
10701;SDS011;5402;50.004;8.246;2023-04-25T07:11:46;7.30;;;3.93;;
10701;SDS011;5402;50.004;8.246;2023-04-25T07:14:13;9.57;;;3.73;;
10701;SDS011;5402;50.004;8.246;2023-04-25T07:16:40;8.73;;;3.70;;
10701;SDS011;5402;50.004;8.246;2023-04-25T07:19:06;11.60;;;4.73;;
10701;SDS011;5402;50.004;8.246;2023-04-25T07:21:33;7.43;;;3.97;;
10701;SDS011;5402;50.004;8.246;2023-04-25T07:24:02;6.50;;;3.90;;
10701;SDS011;5402;50.004;8.246;2023-04-25T07:26:29;4.73;;;3.67;;
10701;SDS011;5402;50.004;8.246;2023-04-25T07:28:56;6.17;;;3.73;;
10701;SDS011;5402;50.004;8.246;2023-04-25T07:31:23;4.30;;;3.53;;
10701;SDS011;5402;50.004;8.246;2023-04-25T07:33:50;8.00;;;3.70;;
10701;SDS011;5402;50.004;8.246;2023-04-25T07:36:17;8.60;;;5.00;;
10701;SDS011;5402;50.004;8.246;2023-04-25T07:38:44;5.33;;;3.63;;
10701;SDS011;5402;50.004;8.246;2023-04-25T07:41:12;5.77;;;3.37;;
10701;SDS011;5402;50.004;8.246;2023-04-25T07:43:38;6.10;;;3.00;;
10701;SDS011;5402;50.004;8.246;2023-04-25T07:46:05;4.27;;;2.73;;
10701;SDS011;5402;50.004;8.246;2023-04-25T07:48:32;5.00;;;2.37;;
10701;SDS011;5402;50.004;8.246;2023-04-25T07:50:58;4.20;;;2.60;;
10701;SDS011;5402;50.004;8.246;2023-04-25T07:53:25;4.60;;;2.60;;
10701;SDS011;5402;50.004;8.246;2023-04-25T07:55:51;3.43;;;2.40;;
10701;SDS011;5402;50.004;8.246;2023-04-25T07:58:20;3.10;;;2.43;;
10701;SDS011;5402;50.004;8.246;2023-04-25T08:00:47;3.73;;;2.13;;
10701;SDS011;5402;50.004;8.246;2023-04-25T08:03:14;2.93;;;2.20;;
10701;SDS011;5402;50.004;8.246;2023-04-25T08:05:40;2.90;;;2.10;;
10701;SDS011;5402;50.004;8.246;2023-04-25T08:08:07;4.77;;;1.97;;
10701;SDS011;5402;50.004;8.246;2023-04-25T08:10:34;3.73;;;1.97;;
10701;SDS011;5402;50.004;8.246;2023-04-25T08:13:00;5.43;;;2.40;;
10701;SDS011;5402;50.004;8.246;2023-04-25T08:15:29;5.77;;;2.20;;
10701;SDS011;5402;50.004;8.246;2023-04-25T08:17:56;4.33;;;2.13;;
10701;SDS011;5402;50.004;8.246;2023-04-25T08:20:23;3.20;;;1.90;;
10701;SDS011;5402;50.004;8.246;2023-04-25T08:22:50;3.40;;;1.80;;
10701;SDS011;5402;50.004;8.246;2023-04-25T08:25:17;3.87;;;2.20;;
10701;SDS011;5402;50.004;8.246;2023-04-25T08:27:44;3.53;;;2.23;;
10701;SDS011;5402;50.004;8.246;2023-04-25T08:30:11;3.40;;;1.80;;
10701;SDS011;5402;50.004;8.246;2023-04-25T08:32:39;2.67;;;1.83;;
10701;SDS011;5402;50.004;8.246;2023-04-25T08:35:06;3.80;;;2.27;;
10701;SDS011;5402;50.004;8.246;2023-04-25T08:37:33;3.50;;;2.00;;
10701;SDS011;5402;50.004;8.246;2023-04-25T08:40:01;3.57;;;2.00;;
10701;SDS011;5402;50.004;8.246;2023-04-25T08:42:32;6.93;;;2.40;;
10701;SDS011;5402;50.004;8.246;2023-04-25T08:45:03;2.83;;;1.90;;
10701;SDS011;5402;50.004;8.246;2023-04-25T08:47:30;4.27;;;1.97;;
10701;SDS011;5402;50.004;8.246;2023-04-25T08:50:01;5.57;;;2.17;;
10701;SDS011;5402;50.004;8.246;2023-04-25T08:52:30;4.03;;;2.50;;
10701;SDS011;5402;50.004;8.246;2023-04-25T08:55:02;5.73;;;2.67;;
10701;SDS011;5402;50.004;8.246;2023-04-25T08:57:30;2.73;;;2.30;;
10701;SDS011;5402;50.004;8.246;2023-04-25T08:59:59;6.83;;;2.50;;
10701;SDS011;5402;50.004;8.246;2023-04-25T09:02:28;4.33;;;2.20;;
10701;SDS011;5402;50.004;8.246;2023-04-25T09:04:55;5.17;;;2.33;;
10701;SDS011;5402;50.004;8.246;2023-04-25T09:07:23;3.93;;;2.17;;
10701;SDS011;5402;50.004;8.246;2023-04-25T09:09:50;5.07;;;2.70;;
10701;SDS011;5402;50.004;8.246;2023-04-25T09:12:18;4.77;;;2.30;;
10701;SDS011;5402;50.004;8.246;2023-04-25T09:14:53;2.90;;;2.03;;
10701;SDS011;5402;50.004;8.246;2023-04-25T09:17:29;3.03;;;2.30;;
10701;SDS011;5402;50.004;8.246;2023-04-25T09:19:55;3.97;;;2.80;;
10701;SDS011;5402;50.004;8.246;2023-04-25T09:22:33;5.67;;;2.80;;
10701;SDS011;5402;50.004;8.246;2023-04-25T09:25:02;3.67;;;3.07;;
10701;SDS011;5402;50.004;8.246;2023-04-25T09:27:29;4.97;;;2.50;;
10701;SDS011;5402;50.004;8.246;2023-04-25T09:29:56;5.47;;;2.60;;
10701;SDS011;5402;50.004;8.246;2023-04-25T09:32:24;7.33;;;2.90;;
10701;SDS011;5402;50.004;8.246;2023-04-25T09:34:51;4.73;;;2.47;;
10701;SDS011;5402;50.004;8.246;2023-04-25T09:37:20;4.50;;;2.50;;
10701;SDS011;5402;50.004;8.246;2023-04-25T09:39:50;4.50;;;2.70;;
10701;SDS011;5402;50.004;8.246;2023-04-25T09:42:21;5.27;;;3.03;;
10701;SDS011;5402;50.004;8.246;2023-04-25T09:44:51;4.87;;;3.00;;
10701;SDS011;5402;50.004;8.246;2023-04-25T09:47:18;5.40;;;3.23;;
10701;SDS011;5402;50.004;8.246;2023-04-25T09:49:46;5.67;;;3.10;;
10701;SDS011;5402;50.004;8.246;2023-04-25T09:52:14;3.97;;;2.97;;
10701;SDS011;5402;50.004;8.246;2023-04-25T09:54:42;4.47;;;3.07;;
10701;SDS011;5402;50.004;8.246;2023-04-25T09:57:14;6.50;;;3.17;;
10701;SDS011;5402;50.004;8.246;2023-04-25T09:59:43;7.73;;;3.40;;
10701;SDS011;5402;50.004;8.246;2023-04-25T10:02:11;4.13;;;3.60;;
10701;SDS011;5402;50.004;8.246;2023-04-25T10:04:38;6.37;;;3.70;;
10701;SDS011;5402;50.004;8.246;2023-04-25T10:07:07;6.63;;;2.73;;
10701;SDS011;5402;50.004;8.246;2023-04-25T10:09:36;5.40;;;3.50;;
10701;SDS011;5402;50.004;8.246;2023-04-25T10:12:04;6.30;;;3.50;;
10701;SDS011;5402;50.004;8.246;2023-04-25T10:14:33;6.57;;;3.60;;
10701;SDS011;5402;50.004;8.246;2023-04-25T10:17:01;6.73;;;3.70;;
10701;SDS011;5402;50.004;8.246;2023-04-25T10:19:28;5.07;;;3.43;;
10701;SDS011;5402;50.004;8.246;2023-04-25T10:21:58;5.17;;;3.67;;
10701;SDS011;5402;50.004;8.246;2023-04-25T10:24:30;4.90;;;3.40;;
10701;SDS011;5402;50.004;8.246;2023-04-25T10:26:57;5.27;;;3.53;;
10701;SDS011;5402;50.004;8.246;2023-04-25T10:29:25;7.73;;;3.60;;
10701;SDS011;5402;50.004;8.246;2023-04-25T10:31:53;6.63;;;3.40;;
10701;SDS011;5402;50.004;8.246;2023-04-25T10:34:23;4.03;;;3.27;;
10701;SDS011;5402;50.004;8.246;2023-04-25T10:36:51;4.83;;;3.20;;
10701;SDS011;5402;50.004;8.246;2023-04-25T10:39:21;4.80;;;3.27;;
10701;SDS011;5402;50.004;8.246;2023-04-25T10:41:53;5.80;;;3.50;;
10701;SDS011;5402;50.004;8.246;2023-04-25T10:44:21;5.47;;;3.17;;
10701;SDS011;5402;50.004;8.246;2023-04-25T10:46:54;5.70;;;3.50;;
10701;SDS011;5402;50.004;8.246;2023-04-25T10:49:28;5.57;;;3.13;;
10701;SDS011;5402;50.004;8.246;2023-04-25T10:52:12;7.27;;;3.70;;
10701;SDS011;5402;50.004;8.246;2023-04-25T10:54:41;5.83;;;3.23;;
10701;SDS011;5402;50.004;8.246;2023-04-25T10:59:59;6.03;;;3.50;;
10701;SDS011;5402;50.004;8.246;2023-04-25T11:02:37;7.23;;;3.77;;
10701;SDS011;5402;50.004;8.246;2023-04-25T11:05:08;4.60;;;3.20;;
10701;SDS011;5402;50.004;8.246;2023-04-25T11:07:37;4.10;;;3.30;;
10701;SDS011;5402;50.004;8.246;2023-04-25T11:10:09;6.50;;;3.23;;
10701;SDS011;5402;50.004;8.246;2023-04-25T11:12:36;4.03;;;3.10;;
10701;SDS011;5402;50.004;8.246;2023-04-25T11:15:03;9.90;;;3.47;;
10701;SDS011;5402;50.004;8.246;2023-04-25T11:17:32;9.67;;;3.37;;
10701;SDS011;5402;50.004;8.246;2023-04-25T11:20:01;6.07;;;3.20;;
10701;SDS011;5402;50.004;8.246;2023-04-25T11:22:31;5.00;;;3.27;;
10701;SDS011;5402;50.004;8.246;2023-04-25T11:25:00;7.70;;;3.47;;
10701;SDS011;5402;50.004;8.246;2023-04-25T11:27:31;8.37;;;3.47;;
10701;SDS011;5402;50.004;8.246;2023-04-25T11:29:58;7.17;;;3.43;;
10701;SDS011;5402;50.004;8.246;2023-04-25T11:32:25;6.23;;;3.47;;
10701;SDS011;5402;50.004;8.246;2023-04-25T11:34:52;5.43;;;3.17;;
10701;SDS011;5402;50.004;8.246;2023-04-25T11:37:20;7.43;;;3.67;;
10701;SDS011;5402;50.004;8.246;2023-04-25T11:39:47;4.93;;;3.10;;
10701;SDS011;5402;50.004;8.246;2023-04-25T11:42:14;7.80;;;3.07;;
10701;SDS011;5402;50.004;8.246;2023-04-25T11:44:41;8.20;;;3.73;;
10701;SDS011;5402;50.004;8.246;2023-04-25T11:47:07;5.47;;;2.63;;
10701;SDS011;5402;50.004;8.246;2023-04-25T11:49:35;4.70;;;2.70;;
10701;SDS011;5402;50.004;8.246;2023-04-25T11:52:02;6.77;;;3.00;;
10701;SDS011;5402;50.004;8.246;2023-04-25T11:54:30;5.67;;;3.20;;
10701;SDS011;5402;50.004;8.246;2023-04-25T11:56:57;7.67;;;2.97;;
10701;SDS011;5402;50.004;8.246;2023-04-25T11:59:24;4.97;;;2.77;;
10701;SDS011;5402;50.004;8.246;2023-04-25T12:01:51;6.53;;;2.87;;
10701;SDS011;5402;50.004;8.246;2023-04-25T12:04:19;6.10;;;2.53;;
10701;SDS011;5402;50.004;8.246;2023-04-25T12:06:48;8.00;;;2.90;;
10701;SDS011;5402;50.004;8.246;2023-04-25T12:09:18;6.17;;;3.00;;
10701;SDS011;5402;50.004;8.246;2023-04-25T12:11:48;5.87;;;2.80;;
10701;SDS011;5402;50.004;8.246;2023-04-25T12:14:21;4.83;;;2.70;;
10701;SDS011;5402;50.004;8.246;2023-04-25T12:16:49;5.63;;;3.20;;
10701;SDS011;5402;50.004;8.246;2023-04-25T12:19:16;5.43;;;2.90;;
10701;SDS011;5402;50.004;8.246;2023-04-25T12:21:44;5.40;;;2.50;;
10701;SDS011;5402;50.004;8.246;2023-04-25T12:24:12;3.37;;;2.40;;
10701;SDS011;5402;50.004;8.246;2023-04-25T12:26:48;9.10;;;2.90;;
10701;SDS011;5402;50.004;8.246;2023-04-25T12:29:17;6.47;;;2.80;;
10701;SDS011;5402;50.004;8.246;2023-04-25T12:31:45;10.90;;;2.93;;
10701;SDS011;5402;50.004;8.246;2023-04-25T12:34:12;4.60;;;2.40;;
10701;SDS011;5402;50.004;8.246;2023-04-25T12:36:38;6.67;;;2.70;;
10701;SDS011;5402;50.004;8.246;2023-04-25T12:39:05;4.30;;;2.50;;
10701;SDS011;5402;50.004;8.246;2023-04-25T12:41:33;6.23;;;2.50;;
10701;SDS011;5402;50.004;8.246;2023-04-25T12:44:01;5.43;;;2.43;;
10701;SDS011;5402;50.004;8.246;2023-04-25T12:46:28;6.10;;;2.90;;
10701;SDS011;5402;50.004;8.246;2023-04-25T12:48:54;9.60;;;2.60;;
10701;SDS011;5402;50.004;8.246;2023-04-25T12:51:22;5.33;;;2.37;;
10701;SDS011;5402;50.004;8.246;2023-04-25T12:53:50;7.17;;;2.60;;
10701;SDS011;5402;50.004;8.246;2023-04-25T12:56:17;7.07;;;3.03;;
10701;SDS011;5402;50.004;8.246;2023-04-25T12:58:44;4.70;;;2.90;;
10701;SDS011;5402;50.004;8.246;2023-04-25T13:01:14;4.57;;;2.43;;
10701;SDS011;5402;50.004;8.246;2023-04-25T13:03:41;5.53;;;2.53;;
10701;SDS011;5402;50.004;8.246;2023-04-25T13:06:07;5.63;;;2.60;;
10701;SDS011;5402;50.004;8.246;2023-04-25T13:08:35;4.83;;;2.30;;
10701;SDS011;5402;50.004;8.246;2023-04-25T13:11:03;8.27;;;2.97;;
10701;SDS011;5402;50.004;8.246;2023-04-25T13:13:30;4.10;;;2.20;;
10701;SDS011;5402;50.004;8.246;2023-04-25T13:15:57;4.40;;;2.60;;
10701;SDS011;5402;50.004;8.246;2023-04-25T13:18:25;5.60;;;2.40;;
10701;SDS011;5402;50.004;8.246;2023-04-25T13:20:52;7.90;;;2.47;;
10701;SDS011;5402;50.004;8.246;2023-04-25T13:23:19;6.17;;;2.50;;
10701;SDS011;5402;50.004;8.246;2023-04-25T13:25:46;3.40;;;2.10;;
10701;SDS011;5402;50.004;8.246;2023-04-25T13:28:13;3.10;;;2.07;;
10701;SDS011;5402;50.004;8.246;2023-04-25T13:30:41;4.60;;;2.40;;
10701;SDS011;5402;50.004;8.246;2023-04-25T13:33:08;4.33;;;2.10;;
10701;SDS011;5402;50.004;8.246;2023-04-25T13:35:36;4.27;;;2.20;;
10701;SDS011;5402;50.004;8.246;2023-04-25T13:38:04;5.50;;;2.60;;
10701;SDS011;5402;50.004;8.246;2023-04-25T13:40:31;3.20;;;2.10;;
10701;SDS011;5402;50.004;8.246;2023-04-25T13:42:58;9.17;;;2.47;;
10701;SDS011;5402;50.004;8.246;2023-04-25T13:45:25;6.23;;;2.30;;
10701;SDS011;5402;50.004;8.246;2023-04-25T13:47:51;3.50;;;2.00;;
10701;SDS011;5402;50.004;8.246;2023-04-25T13:50:20;3.07;;;2.07;;
10701;SDS011;5402;50.004;8.246;2023-04-25T13:52:48;7.17;;;2.27;;
10701;SDS011;5402;50.004;8.246;2023-04-25T13:55:15;3.80;;;1.80;;
10701;SDS011;5402;50.004;8.246;2023-04-25T13:57:41;4.27;;;1.93;;
10701;SDS011;5402;50.004;8.246;2023-04-25T14:00:09;3.07;;;1.70;;
10701;SDS011;5402;50.004;8.246;2023-04-25T14:02:36;5.30;;;2.10;;
10701;SDS011;5402;50.004;8.246;2023-04-25T14:05:03;5.07;;;1.90;;
10701;SDS011;5402;50.004;8.246;2023-04-25T14:07:31;3.00;;;1.80;;
10701;SDS011;5402;50.004;8.246;2023-04-25T14:10:01;4.73;;;2.27;;
10701;SDS011;5402;50.004;8.246;2023-04-25T14:12:29;2.23;;;1.83;;
10701;SDS011;5402;50.004;8.246;2023-04-25T14:14:56;5.97;;;2.50;;
10701;SDS011;5402;50.004;8.246;2023-04-25T14:17:22;3.67;;;2.13;;
10701;SDS011;5402;50.004;8.246;2023-04-25T14:19:49;4.40;;;2.10;;
10701;SDS011;5402;50.004;8.246;2023-04-25T14:22:16;3.37;;;2.00;;
10701;SDS011;5402;50.004;8.246;2023-04-25T14:24:43;6.40;;;2.63;;
10701;SDS011;5402;50.004;8.246;2023-04-25T14:27:12;6.60;;;2.50;;
10701;SDS011;5402;50.004;8.246;2023-04-25T14:29:38;6.90;;;2.10;;
10701;SDS011;5402;50.004;8.246;2023-04-25T14:32:05;3.50;;;2.10;;
10701;SDS011;5402;50.004;8.246;2023-04-25T14:34:32;2.73;;;1.90;;
10701;SDS011;5402;50.004;8.246;2023-04-25T14:36:58;4.77;;;2.33;;
10701;SDS011;5402;50.004;8.246;2023-04-25T14:39:26;3.60;;;2.27;;
10701;SDS011;5402;50.004;8.246;2023-04-25T14:41:52;6.67;;;2.10;;
10701;SDS011;5402;50.004;8.246;2023-04-25T14:44:20;4.43;;;2.07;;
10701;SDS011;5402;50.004;8.246;2023-04-25T14:46:47;4.83;;;2.30;;
10701;SDS011;5402;50.004;8.246;2023-04-25T14:49:16;4.53;;;2.13;;
10701;SDS011;5402;50.004;8.246;2023-04-25T14:51:43;6.03;;;2.30;;
10701;SDS011;5402;50.004;8.246;2023-04-25T14:54:10;5.90;;;2.13;;
10701;SDS011;5402;50.004;8.246;2023-04-25T14:56:37;4.80;;;2.07;;
10701;SDS011;5402;50.004;8.246;2023-04-25T14:59:03;5.43;;;2.20;;
10701;SDS011;5402;50.004;8.246;2023-04-25T15:01:32;5.00;;;2.47;;
10701;SDS011;5402;50.004;8.246;2023-04-25T15:03:59;6.70;;;2.07;;